Time;durP1;ratioP1;P1;durP2;ratioP2;P2;SDS_P1;SDS_P2;PMS_P1;PMS_P2;Temp;Humidity;BMP_temperature;BMP_pressure;BME280_temperature;BME280_humidity;BME280_pressure;Samples;Min_cycle;Max_cycle;Signal;HPM_P1;HPM_P2
2022/02/02 00:01:16;;;;;;;0.50;0.50;;;7.80;99.90;;;;;;5036054;28;20197;-79
2022/02/02 00:03:46;;;;;;;0.50;0.40;;;7.80;99.90;;;;;;5036273;28;20217;-79
2022/02/02 00:06:21;;;;;;;1.35;1.08;;;7.80;99.90;;;;;;5035895;28;20225;-79
2022/02/02 00:09:00;;;;;;;8.95;2.70;;;7.80;99.90;;;;;;5035295;28;20208;-77
2022/02/02 00:14:30;;;;;;;1.75;1.65;;;7.80;99.90;;;;;;5035841;28;20177;-79
2022/02/02 00:17:01;;;;;;;1.10;1.10;;;7.70;99.90;;;;;;5035499;28;20196;-79
2022/02/02 00:19:39;;;;;;;0.50;0.40;;;7.70;99.90;;;;;;5035280;28;20193;-79
2022/02/02 00:22:11;;;;;;;5.45;1.75;;;7.70;99.90;;;;;;5035783;28;20244;-79
2022/02/02 00:24:54;;;;;;;1.30;1.20;;;7.60;99.90;;;;;;5035423;28;20267;-79
2022/02/02 00:27:23;;;;;;;1.45;1.40;;;7.60;99.90;;;;;;5074402;23;20217;-78
2022/02/02 00:29:54;;;;;;;15.93;2.00;;;7.60;99.90;;;;;;5025933;28;20220;-78
2022/02/02 00:32:33;;;;;;;14.63;4.07;;;7.50;99.90;;;;;;5030001;28;20190;-78
2022/02/02 00:34:59;;;;;;;0.47;0.30;;;7.40;99.90;;;;;;5032893;28;20203;-78
2022/02/02 00:37:26;;;;;;;0.50;0.40;;;7.40;99.90;;;;;;5034249;28;20217;-78
2022/02/02 00:39:54;;;;;;;0.40;0.30;;;7.30;99.90;;;;;;5033471;28;20209;-77
2022/02/02 00:42:23;;;;;;;4.10;2.65;;;7.20;99.90;;;;;;5033437;28;20198;-77
2022/02/02 00:44:53;;;;;;;0.50;0.40;;;7.10;99.90;;;;;;5033611;28;20685;-79
2022/02/02 00:47:23;;;;;;;0.50;0.50;;;7.10;99.90;;;;;;5034149;28;20230;-78
2022/02/02 00:49:50;;;;;;;0.50;0.40;;;7.00;99.90;;;;;;5033624;28;20215;-78
2022/02/02 00:52:18;;;;;;;0.50;0.50;;;7.00;99.90;;;;;;5033189;28;20292;-76
2022/02/02 00:54:46;;;;;;;5.65;0.75;;;6.90;99.90;;;;;;5033804;28;20223;-78
2022/02/02 00:57:14;;;;;;;0.50;0.40;;;6.90;99.90;;;;;;5033499;28;20231;-78
2022/02/02 00:59:41;;;;;;;1.60;1.50;;;6.80;99.90;;;;;;5033345;28;20538;-78
2022/02/02 01:02:10;;;;;;;1.40;1.30;;;6.70;99.90;;;;;;5033562;28;20254;-78
2022/02/02 01:04:37;;;;;;;7.82;1.90;;;6.70;99.90;;;;;;5033454;28;20195;-77
2022/02/02 01:07:10;;;;;;;0.50;0.50;;;6.70;99.90;;;;;;5033805;28;20250;-78
2022/02/02 01:09:43;;;;;;;10.05;1.52;;;6.80;99.90;;;;;;5033157;28;20269;-78
2022/02/02 01:20:37;;;;;;;0.50;0.40;;;6.90;99.90;;;;;;5032436;28;20185;-77
2022/02/02 01:28:37;;;;;;;0.40;0.40;;;7.00;99.90;;;;;;5032462;28;20191;-77
2022/02/02 01:31:06;;;;;;;0.50;0.40;;;7.00;99.90;;;;;;5032112;28;20866;-78
2022/02/02 01:33:33;;;;;;;0.73;0.73;;;7.00;99.90;;;;;;5032236;28;20208;-77
2022/02/02 01:36:01;;;;;;;0.70;0.70;;;7.00;99.90;;;;;;5031654;28;20215;-78
2022/02/02 01:38:32;;;;;;;0.40;0.40;;;7.10;99.90;;;;;;5032224;28;20199;-77
2022/02/02 01:41:03;;;;;;;1.40;1.30;;;7.10;99.90;;;;;;5032197;28;20596;-77
2022/02/02 01:43:33;;;;;;;0.50;0.40;;;7.20;99.90;;;;;;5032417;28;20185;-77
2022/02/02 01:46:04;;;;;;;0.50;0.40;;;7.20;99.90;;;;;;5032368;28;20288;-78
2022/02/02 01:48:37;;;;;;;0.40;0.40;;;7.30;99.90;;;;;;5032974;28;20184;-78
2022/02/02 01:51:17;;;;;;;2.47;2.28;;;7.30;99.90;;;;;;5032481;28;20205;-78
2022/02/02 01:53:52;;;;;;;1.98;1.25;;;7.40;99.90;;;;;;5034527;28;20195;-77
2022/02/02 01:56:19;;;;;;;0.65;0.50;;;7.40;99.90;;;;;;5035529;28;20697;-78
2022/02/02 01:59:00;;;;;;;0.85;0.85;;;7.40;99.90;;;;;;5034798;28;20193;-77
2022/02/02 02:01:28;;;;;;;5.82;3.40;;;7.40;99.90;;;;;;5032895;28;20181;-77
2022/02/02 02:03:57;;;;;;;0.60;0.60;;;7.40;99.90;;;;;;5032713;28;20265;-77
2022/02/02 02:06:24;;;;;;;0.50;0.40;;;7.40;99.90;;;;;;5032402;28;20624;-78
2022/02/02 02:08:50;;;;;;;0.50;0.40;;;7.40;99.90;;;;;;5032322;28;20570;-77
2022/02/02 02:11:19;;;;;;;0.47;0.40;;;7.40;99.90;;;;;;5031573;28;20212;-77
2022/02/02 02:16:31;;;;;;;16.08;2.85;;;7.40;99.90;;;;;;5000524;28;20217;-78
2022/02/02 02:18:59;;;;;;;0.63;0.55;;;7.40;99.90;;;;;;5031655;28;20198;-76
2022/02/02 02:21:27;;;;;;;2.55;1.67;;;7.40;99.90;;;;;;5031746;28;20569;-77
2022/02/02 02:23:55;;;;;;;0.75;0.75;;;7.30;99.90;;;;;;5031721;28;20212;-78
2022/02/02 02:26:24;;;;;;;1.15;0.98;;;7.40;99.90;;;;;;5031244;28;20221;-77
2022/02/02 02:29:05;;;;;;;1.15;1.15;;;7.30;99.90;;;;;;5031284;28;20193;-77
2022/02/02 02:31:40;;;;;;;0.77;0.77;;;7.30;99.90;;;;;;5032278;28;20196;-77
2022/02/02 02:34:24;;;;;;;0.50;0.40;;;7.20;99.90;;;;;;5031411;28;20466;-77
2022/02/02 02:37:07;;;;;;;0.40;0.40;;;7.20;99.90;;;;;;5032354;28;20221;-78
2022/02/02 02:39:48;;;;;;;3.03;2.00;;;7.10;99.90;;;;;;5032263;28;20195;-78
2022/02/02 02:55:59;;;;;;;1.15;1.15;;;7.00;99.90;;;;;;5032779;28;20226;-78
2022/02/02 03:01:26;;;;;;;0.40;0.40;;;7.00;99.90;;;;;;5026039;28;20265;-77
2022/02/02 03:31:32;;;;;;;0.43;0.40;;;7.20;99.90;;;;;;5034654;28;20265;-76
2022/02/02 03:53:40;;;;;;;0.40;0.35;;;7.20;99.90;;;;;;5032036;28;20255;-78
2022/02/02 03:56:31;;;;;;;1.23;1.13;;;7.20;99.90;;;;;;5034160;28;20222;-77
2022/02/02 03:59:13;;;;;;;0.40;0.35;;;7.10;99.90;;;;;;5034163;28;20185;-77
2022/02/02 04:02:03;;;;;;;1.17;1.10;;;7.10;99.90;;;;;;5034460;28;20181;-77
2022/02/02 04:04:42;;;;;;;1.25;1.05;;;7.10;99.90;;;;;;5033953;28;20301;-77
2022/02/02 04:07:15;;;;;;;0.50;0.40;;;7.00;99.90;;;;;;5034030;28;20220;-77
2022/02/02 04:09:43;;;;;;;0.57;0.57;;;7.00;99.90;;;;;;5033606;28;20204;-78
2022/02/02 04:12:18;;;;;;;0.50;0.40;;;7.00;99.90;;;;;;5034126;28;20666;-77
2022/02/02 04:53:55;;;;;;;0.77;0.77;;;7.00;99.90;;;;;;5035849;28;20245;-77
2022/02/02 04:56:31;;;;;;;0.50;0.40;;;7.00;99.90;;;;;;5034759;28;20223;-80
2022/02/02 04:59:08;;;;;;;0.82;0.82;;;7.00;99.90;;;;;;5038733;28;20248;-78
2022/02/02 05:04:49;;;;;;;2.65;1.20;;;7.10;99.90;;;;;;5027103;28;20237;-79
2022/02/02 05:07:23;;;;;;;0.50;0.40;;;7.10;99.90;;;;;;5041400;28;20627;-80
2022/02/02 05:09:58;;;;;;;0.50;0.40;;;7.20;99.90;;;;;;5041414;28;20588;-80
2022/02/02 05:13:10;;;;;;;3.78;1.55;;;7.20;99.90;;;;;;5045286;28;20182;-79
2022/02/02 05:18:24;;;;;;;2.78;0.50;;;7.20;99.90;;;;;;5044375;28;20180;-80
2022/02/02 05:43:30;;;;;;;0.50;0.40;;;7.10;99.90;;;;;;5037857;28;20230;-79
2022/02/02 05:51:19;;;;;;;3.30;0.82;;;6.90;99.90;;;;;;5034447;28;20250;-77
2022/02/02 05:53:47;;;;;;;0.50;0.40;;;6.80;99.90;;;;;;5034920;28;20196;-78
2022/02/02 05:56:15;;;;;;;1.45;0.60;;;6.70;99.90;;;;;;5033691;28;20652;-77
2022/02/02 05:58:45;;;;;;;0.50;0.40;;;6.70;99.90;;;;;;5033992;28;20212;-78
2022/02/02 06:01:13;;;;;;;0.50;0.40;;;6.60;99.90;;;;;;5033469;28;20203;-78
2022/02/02 06:03:52;;;;;;;0.50;0.40;;;6.60;99.90;;;;;;5035129;28;20201;-78
2022/02/02 06:06:21;;;;;;;0.50;0.40;;;6.60;99.90;;;;;;5034070;28;20289;-78
2022/02/02 06:08:49;;;;;;;0.50;0.40;;;6.60;99.90;;;;;;5034165;28;20669;-77
2022/02/02 06:11:19;;;;;;;0.50;0.40;;;6.60;99.90;;;;;;5033191;28;20215;-77
2022/02/02 06:13:51;;;;;;;7.63;7.07;;;6.60;99.90;;;;;;5033472;28;20210;-77
2022/02/02 06:16:19;;;;;;;0.50;0.40;;;6.60;99.90;;;;;;5034322;28;20215;-79
2022/02/02 06:18:53;;;;;;;0.50;0.40;;;6.60;99.90;;;;;;5033282;28;20545;-77
2022/02/02 06:21:25;;;;;;;0.50;0.40;;;6.60;99.90;;;;;;5034054;28;20198;-77
2022/02/02 06:23:58;;;;;;;0.50;0.40;;;6.60;99.90;;;;;;5033202;28;20191;-77
2022/02/02 06:26:28;;;;;;;0.50;0.40;;;6.60;99.90;;;;;;5034422;28;20230;-79
2022/02/02 06:28:57;;;;;;;0.50;0.40;;;6.60;99.90;;;;;;5033304;28;20242;-78
2022/02/02 06:31:27;;;;;;;0.50;0.40;;;6.60;99.90;;;;;;5034512;28;20303;-78
2022/02/02 06:33:55;;;;;;;0.50;0.40;;;6.60;99.90;;;;;;5033872;28;20231;-79
2022/02/02 06:36:22;;;;;;;0.50;0.40;;;6.70;99.90;;;;;;5033625;28;20277;-78
2022/02/02 06:38:49;;;;;;;0.50;0.40;;;6.70;99.90;;;;;;5033219;28;20214;-78
2022/02/02 06:41:17;;;;;;;0.50;0.40;;;6.70;99.90;;;;;;5033049;28;20191;-79
2022/02/02 06:43:46;;;;;;;0.50;0.40;;;6.70;99.90;;;;;;5037512;28;20204;-79
2022/02/02 06:46:14;;;;;;;0.50;0.40;;;6.80;99.90;;;;;;5036694;28;20278;-79
2022/02/02 06:48:40;;;;;;;0.50;0.40;;;6.80;99.90;;;;;;5036330;28;20227;-79
2022/02/02 06:51:14;;;;;;;0.50;0.40;;;6.80;99.90;;;;;;5035635;28;20240;-79
2022/02/02 06:53:53;;;;;;;0.50;0.40;;;6.80;99.90;;;;;;5036889;28;20285;-79
2022/02/02 06:56:36;;;;;;;0.50;0.40;;;6.80;99.90;;;;;;5037872;28;20211;-78
2022/02/02 06:59:17;;;;;;;0.50;0.35;;;6.80;99.90;;;;;;5037888;28;20222;-77
2022/02/02 07:01:57;;;;;;;0.50;0.40;;;6.70;99.90;;;;;;5037005;28;20704;-77
2022/02/02 07:04:57;;;;;;;0.50;0.40;;;6.60;99.90;;;;;;5036737;28;20202;-77
2022/02/02 07:07:38;;;;;;;0.50;0.40;;;6.70;99.90;;;;;;5036700;28;20260;-79
2022/02/02 07:10:16;;;;;;;0.50;0.40;;;6.70;99.90;;;;;;5035842;28;20663;-78
2022/02/02 07:12:59;;;;;;;0.50;0.40;;;6.70;99.90;;;;;;5037103;28;20195;-78
2022/02/02 07:15:43;;;;;;;0.47;0.40;;;6.70;99.90;;;;;;5036436;28;20577;-76
2022/02/02 07:18:22;;;;;;;0.50;0.40;;;6.70;99.90;;;;;;5035502;28;20272;-79
2022/02/02 07:20:58;;;;;;;0.50;0.40;;;6.50;99.90;;;;;;5035619;28;20175;-78
2022/02/02 07:26:27;;;;;;;0.50;0.40;;;6.50;99.90;;;;;;5034439;28;20219;-77
2022/02/02 07:29:04;;;;;;;0.50;0.40;;;6.50;99.90;;;;;;5034756;28;20259;-77
2022/02/02 07:32:25;;;;;;;0.50;0.40;;;6.50;99.90;;;;;;5034911;28;20218;-77
2022/02/02 07:35:56;;;;;;;0.40;0.40;;;6.50;99.90;;;;;;5035740;28;20530;-78
2022/02/02 07:39:13;;;;;;;0.60;0.60;;;6.50;99.90;;;;;;5035026;28;20176;-78
2022/02/02 07:42:31;;;;;;;0.40;0.30;;;6.50;99.90;;;;;;5035664;28;20222;-79
2022/02/02 07:45:48;;;;;;;0.40;0.30;;;6.50;99.90;;;;;;5034656;28;20556;-79
2022/02/02 07:49:04;;;;;;;0.55;0.55;;;6.50;99.90;;;;;;5034491;28;20594;-75
2022/02/02 07:52:20;;;;;;;1.20;1.20;;;6.60;99.90;;;;;;5034751;28;20253;-77
2022/02/02 07:55:38;;;;;;;0.50;0.40;;;6.60;99.90;;;;;;5028311;28;20286;-77
2022/02/02 07:59:11;;;;;;;0.60;0.60;;;6.70;99.90;;;;;;5024240;28;20197;-77
2022/02/02 08:02:40;;;;;;;1.45;1.02;;;6.70;99.90;;;;;;5021507;28;20592;-77
2022/02/02 08:05:57;;;;;;;0.50;0.40;;;6.70;99.90;;;;;;5034219;28;20183;-78
2022/02/02 08:09:24;;;;;;;0.43;0.40;;;6.80;99.90;;;;;;5036594;28;20230;-78
2022/02/02 08:12:48;;;;;;;0.50;0.40;;;6.90;99.90;;;;;;5034212;28;20675;-78
2022/02/02 08:16:07;;;;;;;0.40;0.32;;;7.00;99.90;;;;;;5034285;28;20196;-78
2022/02/02 08:19:23;;;;;;;0.50;0.40;;;7.10;99.90;;;;;;5034110;28;20225;-78
2022/02/02 08:22:40;;;;;;;0.50;0.40;;;7.20;99.90;;;;;;5034192;28;20200;-78
2022/02/02 08:25:59;;;;;;;3.47;0.98;;;7.20;99.90;;;;;;5034410;28;20206;-78
2022/02/02 08:29:16;;;;;;;0.50;0.50;;;7.30;99.90;;;;;;5034442;28;20200;-78
2022/02/02 08:32:39;;;;;;;1.98;1.58;;;7.40;99.90;;;;;;5036457;28;20271;-78
2022/02/02 08:35:58;;;;;;;1.70;0.60;;;7.50;99.90;;;;;;5036864;28;20647;-79
2022/02/02 08:39:25;;;;;;;0.50;0.40;;;7.60;99.90;;;;;;5035818;28;20205;-79
2022/02/02 08:42:43;;;;;;;0.50;0.40;;;7.70;99.90;;;;;;5033801;28;20288;-78
2022/02/02 08:46:05;;;;;;;0.50;0.40;;;7.90;99.90;;;;;;5033485;28;20565;-77
2022/02/02 08:49:21;;;;;;;2.13;1.88;;;8.00;99.90;;;;;;5033584;28;20632;-77
2022/02/02 08:52:49;;;;;;;0.50;0.40;;;8.10;99.90;;;;;;5033266;28;20585;-78
2022/02/02 08:59:56;;;;;;;1.63;1.52;;;8.40;99.90;;;;;;5008473;28;20666;-78
2022/02/02 09:06:48;;;;;;;0.50;0.40;;;8.70;99.90;;;;;;5033011;28;20611;-77
2022/02/02 09:10:11;;;;;;;0.98;0.88;;;8.70;99.90;;;;;;5032486;28;20209;-77
2022/02/02 09:24:22;;;;;;;1.33;0.70;;;8.60;99.90;;;;;;5032727;28;20266;-76
2022/02/02 09:36:30;;;;;;;0.50;0.40;;;8.40;99.90;;;;;;5033158;28;20206;-79
2022/02/02 09:39:00;;;;;;;2.28;1.15;;;8.60;99.90;;;;;;5033578;28;20210;-78
2022/02/02 09:41:42;;;;;;;0.50;0.40;;;8.80;99.90;;;;;;5032581;28;20189;-78
2022/02/02 09:44:13;;;;;;;0.50;0.40;;;8.80;99.90;;;;;;5032578;28;20187;-78
2022/02/02 09:46:50;;;;;;;0.98;0.98;;;8.90;99.90;;;;;;5031960;28;20309;-78
2022/02/02 09:49:23;;;;;;;1.40;1.30;;;9.00;99.90;;;;;;5032218;28;20199;-76
2022/02/02 09:51:58;;;;;;;0.50;0.40;;;8.90;99.90;;;;;;5033878;28;20230;-78
2022/02/02 09:54:30;;;;;;;0.60;0.55;;;8.90;99.90;;;;;;5034804;28;20217;-76
2022/02/02 10:00:14;;;;;;;7.05;2.50;;;8.90;99.90;;;;;;5034432;28;20269;-78
2022/02/02 10:03:01;;;;;;;3.75;2.50;;;8.90;99.90;;;;;;5034424;28;20201;-77
2022/02/02 10:05:32;;;;;;;0.50;0.40;;;9.00;99.90;;;;;;5035016;28;20191;-78
2022/02/02 10:08:48;;;;;;;2.75;1.40;;;9.00;99.90;;;;;;5034301;28;20200;-78
2022/02/02 10:11:49;;;;;;;0.93;0.93;;;9.10;99.90;;;;;;5031588;28;20311;-78
2022/02/02 10:14:38;;;;;;;3.60;3.40;;;9.30;99.90;;;;;;5031662;28;20283;-79
2022/02/02 10:17:10;;;;;;;2.45;2.35;;;9.40;99.90;;;;;;5032595;28;20231;-78
2022/02/02 10:19:39;;;;;;;0.50;0.40;;;9.30;99.90;;;;;;5032302;28;20306;-77
2022/02/02 10:22:25;;;;;;;0.50;0.40;;;9.30;99.90;;;;;;5032131;28;20816;-79
2022/02/02 10:24:53;;;;;;;2.03;1.90;;;9.50;99.90;;;;;;5032482;28;20198;-79
2022/02/02 10:27:27;;;;;;;0.73;0.73;;;9.80;99.90;;;;;;5032818;28;20236;-78
2022/02/02 10:29:54;;;;;;;0.50;0.40;;;10.00;99.90;;;;;;5032464;28;20199;-78
2022/02/02 10:32:43;;;;;;;1.13;0.85;;;10.20;99.90;;;;;;5032647;28;20226;-76
2022/02/02 10:35:29;;;;;;;0.50;0.40;;;10.60;99.90;;;;;;5027845;28;20203;-78
2022/02/02 10:38:00;;;;;;;13.95;2.80;;;11.10;99.90;;;;;;5032663;28;20226;-79
2022/02/02 10:40:43;;;;;;;0.80;0.47;;;11.10;99.90;;;;;;5032535;28;20195;-80
2022/02/02 10:43:22;;;;;;;21.27;2.60;;;10.90;99.90;;;;;;5032388;28;20195;-78
2022/02/02 10:45:49;;;;;;;0.95;0.95;;;10.80;99.90;;;;;;5031569;28;20222;-78
2022/02/02 10:48:28;;;;;;;0.50;0.50;;;10.60;99.90;;;;;;5031643;28;20252;-76
2022/02/02 10:51:07;;;;;;;0.50;0.40;;;10.70;99.90;;;;;;5031022;28;20281;-78
2022/02/02 10:53:48;;;;;;;0.60;0.60;;;10.70;99.90;;;;;;5031863;28;20484;-78
2022/02/02 10:59:18;;;;;;;1.17;1.07;;;10.70;99.90;;;;;;5028993;28;20294;-77
2022/02/02 11:01:49;;;;;;;0.50;0.40;;;10.60;99.90;;;;;;5031934;28;20422;-81
2022/02/02 11:07:02;;;;;;;0.50;0.40;;;10.50;99.90;;;;;;5033910;28;20213;-77
2022/02/02 11:09:30;;;;;;;1.67;1.50;;;10.40;99.90;;;;;;5031850;28;20202;-78
2022/02/02 11:11:58;;;;;;;0.50;0.40;;;10.40;99.90;;;;;;5031951;28;20273;-77
2022/02/02 11:14:37;;;;;;;0.50;0.40;;;10.50;99.90;;;;;;5031662;28;20781;-76
2022/02/02 11:17:09;;;;;;;0.50;0.40;;;10.50;99.90;;;;;;5032232;28;20211;-77
2022/02/02 11:19:39;;;;;;;0.50;0.40;;;11.30;99.90;;;;;;5031170;28;20242;-75
2022/02/02 11:22:30;;;;;;;0.50;0.40;;;12.00;99.90;;;;;;5031670;28;20192;-78
2022/02/02 11:25:12;;;;;;;0.83;0.83;;;12.50;99.90;;;;;;5031249;28;20871;-78
2022/02/02 11:27:41;;;;;;;0.50;0.40;;;12.60;99.90;;;;;;5033020;28;20443;-77
2022/02/02 11:30:10;;;;;;;0.50;0.30;;;12.70;99.90;;;;;;5034780;28;20630;-77
2022/02/02 11:32:42;;;;;;;0.50;0.40;;;12.70;99.90;;;;;;5034934;28;21007;-78
2022/02/02 11:35:27;;;;;;;0.50;0.40;;;12.80;99.90;;;;;;5034774;28;20528;-78
2022/02/02 11:38:04;;;;;;;0.60;0.60;;;13.40;99.90;;;;;;5034775;28;20855;-78
2022/02/02 11:40:35;;;;;;;0.87;0.63;;;14.00;99.90;;;;;;5033825;28;20951;-78
2022/02/02 11:43:08;;;;;;;3.33;1.17;;;13.80;99.90;;;;;;5034462;28;20433;-79
2022/02/02 11:45:51;;;;;;;0.50;0.40;;;13.80;99.90;;;;;;5034767;28;20503;-78
2022/02/02 11:49:02;;;;;;;0.50;0.40;;;13.90;99.90;;;;;;5035013;28;20430;-76
2022/02/02 11:51:39;;;;;;;1.40;1.10;;;13.90;99.90;;;;;;5034137;28;20474;-78
2022/02/02 11:54:08;;;;;;;0.50;0.50;;;13.80;99.90;;;;;;5034950;28;20500;-78
2022/02/02 11:57:26;;;;;;;0.50;0.40;;;13.60;99.90;;;;;;5034556;28;20464;-78
2022/02/02 12:00:01;;;;;;;0.50;0.40;;;13.40;99.90;;;;;;5034600;28;20543;-78
2022/02/02 12:05:25;;;;;;;21.90;2.90;;;12.40;99.90;;;;;;5033604;28;20890;-77
2022/02/02 12:08:04;;;;;;;1.90;1.03;;;11.90;99.90;;;;;;5034478;28;20495;-78
2022/02/02 12:10:53;;;;;;;0.50;0.40;;;11.50;99.90;;;;;;5033484;28;20818;-77
2022/02/02 12:20:26;;;;;;;0.50;0.40;;;10.60;99.90;;;;;;5033640;28;20690;-76
2022/02/02 12:53:35;;;;;;;0.50;0.50;;;11.20;99.90;;;;;;5015876;28;20435;-81
2022/02/02 12:53:40;;;;;;;0.50;0.40;;;11.00;99.90;;;;;;5020035;28;20999;-80
2022/02/02 12:56:24;;;;;;;0.50;0.40;;;10.60;99.90;;;;;;5018383;28;20423;-78
2022/02/02 12:58:52;;;;;;;0.50;0.40;;;10.50;99.90;;;;;;5016573;28;20223;-80
2022/02/02 13:01:22;;;;;;;1.90;1.80;;;10.50;99.90;;;;;;5017438;28;20244;-82
2022/02/02 13:03:50;;;;;;;2.05;0.77;;;10.30;99.90;;;;;;5017032;28;20184;-82
2022/02/02 13:06:21;;;;;;;0.50;0.40;;;10.10;99.90;;;;;;5017011;28;20207;-83
2022/02/02 13:08:51;;;;;;;0.50;0.40;;;9.90;99.90;;;;;;5017674;28;20250;-79
2022/02/02 13:11:29;;;;;;;0.50;0.40;;;9.80;99.90;;;;;;5016424;28;20755;-82
2022/02/02 13:14:00;;;;;;;0.50;0.40;;;9.90;99.90;;;;;;5016542;28;20202;-82
2022/02/02 13:16:29;;;;;;;0.50;0.40;;;10.00;99.90;;;;;;5016361;28;20238;-81
2022/02/02 13:19:01;;;;;;;0.68;0.68;;;10.10;99.90;;;;;;5015635;28;20725;-78
2022/02/02 13:21:31;;;;;;;0.80;0.60;;;10.20;99.90;;;;;;5016212;28;20196;-83
2022/02/02 13:24:07;;;;;;;0.50;0.40;;;10.40;99.90;;;;;;5015985;28;20218;-80
2022/02/02 13:26:43;;;;;;;0.50;0.40;;;10.90;99.90;;;;;;5016593;28;20184;-82
2022/02/02 13:29:18;;;;;;;0.50;0.40;;;11.30;99.90;;;;;;5016900;28;20226;-80
2022/02/02 13:31:55;;;;;;;0.50;0.40;;;11.80;99.90;;;;;;5017169;28;20454;-81
2022/02/02 13:34:36;;;;;;;0.50;0.30;;;12.40;99.90;;;;;;5017218;28;20427;-80
2022/02/02 13:37:32;;;;;;;2.30;0.90;;;13.00;99.90;;;;;;5017159;28;20848;-82
2022/02/02 13:54:33;;;;;;;4.07;1.53;;;14.10;99.90;;;;;;5016284;28;20465;-80
2022/02/02 14:00:21;;;;;;;0.50;0.40;;;14.30;99.90;;;;;;5015914;28;20434;-82
2022/02/02 14:25:54;;;;;;;0.50;0.40;;;16.80;98.90;;;;;;5015029;28;20565;-82
2022/02/02 14:31:11;;;;;;;0.50;0.40;;;17.90;94.30;;;;;;5024313;28;20406;-80
2022/02/02 14:33:39;;;;;;;0.50;0.40;;;17.70;90.90;;;;;;5024101;28;20502;-80
2022/02/02 14:36:08;;;;;;;0.50;0.40;;;18.10;91.10;;;;;;5018817;28;20991;-82
2022/02/02 14:38:43;;;;;;;0.50;0.40;;;18.00;89.50;;;;;;5016983;28;20841;-79
2022/02/02 14:41:17;;;;;;;0.50;0.40;;;17.80;88.90;;;;;;5020226;28;20442;-83
2022/02/02 14:43:51;;;;;;;0.50;0.30;;;17.40;90.90;;;;;;5015242;28;20836;-82
2022/02/02 14:46:22;;;;;;;0.50;0.40;;;17.80;91.70;;;;;;5015328;28;20453;-82
2022/02/02 14:48:53;;;;;;;0.50;0.30;;;17.60;90.90;;;;;;5015226;28;20533;-80
2022/02/02 14:51:36;;;;;;;0.50;0.40;;;17.30;92.00;;;;;;5014981;28;20447;-82
2022/02/02 14:54:13;;;;;;;0.50;0.40;;;17.20;91.40;;;;;;5015069;28;20449;-82
2022/02/02 15:27:28;;;;;;;1.17;1.17;;;11.00;99.90;;;;;;4985318;28;20492;-81
2022/02/02 15:30:10;;;;;;;0.50;0.40;;;10.70;99.90;;;;;;5018461;28;20449;-81
2022/02/02 15:32:41;;;;;;;0.50;0.40;;;10.50;99.90;;;;;;5018877;28;20486;-81
2022/02/02 15:35:09;;;;;;;0.60;0.57;;;10.20;99.90;;;;;;5018179;28;20940;-79
2022/02/02 15:37:42;;;;;;;0.50;0.40;;;10.00;99.90;;;;;;5017399;28;20547;-80
2022/02/02 15:40:12;;;;;;;0.50;0.50;;;9.90;99.90;;;;;;5018602;28;20435;-80
2022/02/02 15:42:56;;;;;;;0.50;0.40;;;9.60;99.90;;;;;;5018401;28;20444;-81
2022/02/02 15:57:13;;;;;;;0.50;0.40;;;9.00;99.90;;;;;;5017958;28;20271;-82
2022/02/02 15:59:55;;;;;;;0.50;0.40;;;8.90;99.90;;;;;;5016461;28;20196;-80
2022/02/02 16:02:20;;;;;;;0.50;0.40;;;8.80;99.90;;;;;;5017169;28;20192;-82
2022/02/02 16:04:48;;;;;;;0.50;0.40;;;8.60;99.90;;;;;;5017901;28;20346;-82
2022/02/02 16:07:24;;;;;;;0.63;0.63;;;8.50;99.90;;;;;;5017807;28;20227;-82
2022/02/02 16:09:53;;;;;;;1.48;1.38;;;8.50;99.90;;;;;;5017236;28;20665;-78
2022/02/02 16:12:25;;;;;;;0.50;0.40;;;8.40;99.90;;;;;;5017149;28;20219;-81
2022/02/02 16:15:02;;;;;;;0.50;0.40;;;8.30;99.90;;;;;;5017154;28;20722;-82
2022/02/02 16:31:39;;;;;;;0.50;0.40;;;7.70;99.90;;;;;;5017712;28;20237;-83
2022/02/02 16:36:52;;;;;;;0.50;0.40;;;7.50;99.90;;;;;;5017427;28;20214;-80
2022/02/02 16:39:23;;;;;;;0.50;0.40;;;7.40;99.90;;;;;;5017777;28;20567;-81
2022/02/02 16:44:34;;;;;;;2.65;2.55;;;7.20;99.90;;;;;;5029717;28;20201;-80
2022/02/02 16:47:02;;;;;;;0.50;0.40;;;7.10;99.90;;;;;;5017006;28;20250;-80
2022/02/02 16:49:29;;;;;;;0.50;0.40;;;7.10;99.90;;;;;;5016712;28;20265;-80
2022/02/02 16:51:55;;;;;;;0.50;0.40;;;7.00;99.90;;;;;;5032766;28;20221;-81
2022/02/02 16:54:26;;;;;;;0.50;0.40;;;7.00;99.90;;;;;;5035975;28;20584;-80
2022/02/02 16:57:11;;;;;;;0.50;0.40;;;7.00;99.90;;;;;;5037499;28;20766;-80
2022/02/02 17:30:09;;;;;;;0.50;0.40;;;6.50;99.90;;;;;;5036259;28;20239;-77
2022/02/02 17:32:45;;;;;;;0.50;0.40;;;6.60;99.90;;;;;;5037061;28;20204;-80
2022/02/02 17:38:01;;;;;;;0.50;0.40;;;6.70;99.90;;;;;;5034953;28;20249;-79
2022/02/02 17:58:20;;;;;;;0.50;0.40;;;6.90;99.90;;;;;;5026745;28;20589;-78
2022/02/02 18:03:40;;;;;;;0.50;0.40;;;7.00;99.90;;;;;;5032452;28;20198;-80
2022/02/02 18:20:00;;;;;;;0.50;0.40;;;7.00;99.90;;;;;;5032449;28;20640;-80
2022/02/02 18:22:34;;;;;;;0.50;0.50;;;7.10;99.90;;;;;;5033681;28;20199;-80
2022/02/02 18:25:08;;;;;;;0.50;0.40;;;7.00;99.90;;;;;;5032968;28;20196;-80
2022/02/02 18:27:44;;;;;;;0.50;0.40;;;7.10;99.90;;;;;;5034963;28;20298;-80
2022/02/02 18:30:25;;;;;;;0.50;0.40;;;7.10;99.90;;;;;;5033658;28;20219;-79
2022/02/02 18:33:07;;;;;;;0.50;0.40;;;7.20;99.90;;;;;;5094302;23;20279;-80
2022/02/02 18:35:39;;;;;;;0.50;0.40;;;7.20;99.90;;;;;;5049402;28;20193;-78
2022/02/02 18:46:34;;;;;;;0.50;0.40;;;7.40;99.90;;;;;;5016591;28;20194;-78
2022/02/02 18:49:08;;;;;;;0.50;0.40;;;7.30;99.90;;;;;;5039136;28;20267;-78
2022/02/02 18:54:32;;;;;;;0.85;0.85;;;7.40;99.90;;;;;;5029207;28;20272;-79
2022/02/02 18:57:13;;;;;;;0.50;0.40;;;7.40;99.90;;;;;;5038858;28;20262;-78
2022/02/02 19:00:02;;;;;;;0.50;0.50;;;7.40;99.90;;;;;;5038752;28;20197;-79
2022/02/02 19:02:53;;;;;;;0.50;0.40;;;7.40;99.90;;;;;;5038293;28;20220;-79
2022/02/02 19:14:37;;;;;;;0.65;0.65;;;7.50;99.90;;;;;;5035021;28;20196;-78
2022/02/02 19:52:36;;;;;;;0.98;0.98;;;7.60;99.90;;;;;;5033981;28;20220;-78
2022/02/02 19:55:22;;;;;;;0.82;0.82;;;7.60;99.90;;;;;;5034186;28;20294;-79
2022/02/02 20:03:48;;;;;;;0.80;0.70;;;7.60;99.90;;;;;;5011360;28;20237;-79
2022/02/02 20:06:23;;;;;;;0.57;0.57;;;7.60;99.90;;;;;;5033048;28;20198;-78
2022/02/02 20:09:20;;;;;;;0.60;0.55;;;7.70;99.90;;;;;;5032758;28;20220;-78
2022/02/02 20:11:45;;;;;;;0.60;0.60;;;7.70;99.90;;;;;;5032335;28;20226;-78
2022/02/02 20:14:13;;;;;;;0.50;0.40;;;7.70;99.90;;;;;;5032622;28;20566;-78
2022/02/02 20:16:40;;;;;;;0.50;0.40;;;7.70;99.90;;;;;;5033725;28;20546;-79
2022/02/02 20:19:11;;;;;;;0.50;0.40;;;7.70;99.90;;;;;;5033868;28;20981;-79
2022/02/02 20:21:46;;;;;;;0.50;0.40;;;7.70;99.90;;;;;;5033552;28;20308;-78
2022/02/02 20:24:13;;;;;;;0.50;0.40;;;7.80;99.90;;;;;;5033113;28;20186;-77
2022/02/02 20:26:46;;;;;;;2.70;2.40;;;7.80;99.90;;;;;;5033276;28;20201;-78
2022/02/02 20:29:13;;;;;;;0.93;0.93;;;7.80;99.90;;;;;;5031995;28;20187;-79
2022/02/02 20:31:40;;;;;;;0.50;0.40;;;7.80;99.90;;;;;;5032727;28;20229;-79
2022/02/02 20:34:08;;;;;;;0.50;0.40;;;7.80;99.90;;;;;;5033513;28;20221;-79
2022/02/02 20:36:38;;;;;;;1.25;1.25;;;7.80;99.90;;;;;;5032760;28;20298;-78
2022/02/02 20:39:11;;;;;;;0.50;0.40;;;7.80;99.90;;;;;;5032049;28;20202;-79
2022/02/02 20:41:39;;;;;;;0.50;0.40;;;7.80;99.90;;;;;;5031835;28;20221;-79
2022/02/02 20:44:16;;;;;;;2.95;1.70;;;7.80;99.90;;;;;;5033043;28;20198;-79
2022/02/02 20:47:02;;;;;;;0.60;0.60;;;7.80;99.90;;;;;;5032596;28;20217;-78
2022/02/02 21:00:45;;;;;;;7.22;2.88;;;7.80;99.90;;;;;;5030230;28;20299;-78
2022/02/02 21:03:35;;;;;;;18.17;1.98;;;7.90;99.90;;;;;;5031854;28;20336;-78
2022/02/02 21:06:18;;;;;;;0.73;0.73;;;7.90;99.90;;;;;;5032264;28;20311;-79
2022/02/02 21:09:02;;;;;;;2.28;1.65;;;7.90;99.90;;;;;;5031406;28;20302;-78
2022/02/02 21:11:52;;;;;;;3.50;2.72;;;7.90;99.90;;;;;;5028200;28;20189;-78
2022/02/02 21:14:22;;;;;;;1.77;1.67;;;7.90;99.90;;;;;;5031916;28;20254;-78
2022/02/02 21:16:48;;;;;;;2.97;2.10;;;7.90;99.90;;;;;;5031947;28;20196;-79
2022/02/02 21:19:25;;;;;;;2.50;2.33;;;7.90;99.90;;;;;;5031515;28;20264;-79
2022/02/02 21:21:58;;;;;;;5.22;4.75;;;7.80;99.90;;;;;;5032576;28;20229;-78
2022/02/02 21:24:47;;;;;;;0.60;0.50;;;7.80;99.90;;;;;;5032657;28;20639;-79
2022/02/02 21:27:22;;;;;;;1.60;1.50;;;7.80;99.90;;;;;;5031925;28;20596;-78
2022/02/02 21:29:49;;;;;;;4.15;2.60;;;7.80;99.90;;;;;;5031516;28;20195;-79
2022/02/02 21:32:17;;;;;;;7.93;7.07;;;7.80;99.90;;;;;;5031111;28;20229;-78
2022/02/02 21:34:44;;;;;;;2.42;1.65;;;7.80;99.90;;;;;;5030872;28;20936;-79
2022/02/02 21:37:12;;;;;;;7.40;1.95;;;7.80;99.90;;;;;;5031533;28;20670;-79
2022/02/02 21:39:51;;;;;;;2.75;2.25;;;7.80;99.90;;;;;;5031461;28;20556;-80
2022/02/02 21:42:18;;;;;;;3.72;1.85;;;7.80;99.90;;;;;;5031876;28;20215;-78
2022/02/02 21:44:44;;;;;;;2.67;2.45;;;7.80;99.90;;;;;;5029387;28;20194;-78
2022/02/02 21:47:12;;;;;;;3.75;2.25;;;7.80;99.90;;;;;;5028304;28;20213;-78
2022/02/02 21:49:40;;;;;;;1.73;1.55;;;7.80;99.90;;;;;;5030516;28;20205;-79
2022/02/02 21:52:10;;;;;;;2.08;1.30;;;7.80;99.90;;;;;;5030493;28;20308;-78
2022/02/02 21:54:38;;;;;;;1.88;1.77;;;7.80;99.90;;;;;;5030102;28;20286;-77